Time;durP1;ratioP1;P1;durP2;ratioP2;P2;SDS_P1;SDS_P2;PMS_P1;PMS_P2;Temp;Humidity;BMP_temperature;BMP_pressure;BME280_temperature;BME280_humidity;BME280_pressure;Samples;Min_cycle;Max_cycle;Signal;HPM_P1;HPM_P2
2022/01/08 00:00:17;;;;;;;8.65;4.70;;;;;;;7.22;62.96;100966.41;5064852;28;20049;-66
2022/01/08 00:02:45;;;;;;;7.90;4.45;;;;;;;7.22;63.02;100974.44;5062841;28;20049;-67
2022/01/08 00:05:13;;;;;;;9.38;4.45;;;;;;;7.22;62.97;100980.59;5062928;28;20062;-66
2022/01/08 00:07:40;;;;;;;11.65;4.45;;;;;;;7.19;63.07;100976.47;5061206;28;20052;-67
2022/01/08 00:10:10;;;;;;;10.40;4.90;;;;;;;7.19;63.01;100975.66;5061243;28;20163;-69
2022/01/08 00:12:38;;;;;;;10.95;4.60;;;;;;;7.16;62.60;100976.88;5064020;28;20049;-68
2022/01/08 00:15:07;;;;;;;11.60;5.65;;;;;;;7.18;63.25;100984.69;5072538;28;20083;-67
2022/01/08 00:17:35;;;;;;;10.35;5.63;;;;;;;7.24;62.77;100985.75;5065508;28;20049;-67
2022/01/08 00:20:05;;;;;;;10.50;4.22;;;;;;;7.26;62.47;100994.41;5062063;28;20055;-67
2022/01/08 00:22:33;;;;;;;11.98;4.30;;;;;;;7.27;62.61;100999.56;5061669;28;20079;-68
2022/01/08 00:25:01;;;;;;;11.85;4.50;;;;;;;7.26;62.52;100997.91;5062143;28;20140;-66
2022/01/08 00:27:30;;;;;;;9.52;4.68;;;;;;;7.26;62.61;100999.75;5069847;28;20044;-67
2022/01/08 00:29:58;;;;;;;9.18;5.10;;;;;;;7.22;62.48;100993.16;5065055;28;20049;-68
2022/01/08 00:32:26;;;;;;;14.30;5.32;;;;;;;7.21;62.25;100999.50;5062244;28;20084;-65
2022/01/08 00:34:54;;;;;;;13.68;6.10;;;;;;;7.18;62.45;100996.22;5062597;28;20144;-66
2022/01/08 00:37:21;;;;;;;10.80;5.00;;;;;;;7.17;62.52;101004.41;5069478;28;20036;-66
2022/01/08 00:39:49;;;;;;;13.75;7.05;;;;;;;7.14;62.98;101010.97;5061061;28;20045;-66
2022/01/08 00:42:17;;;;;;;11.32;5.47;;;;;;;7.08;62.25;101001.06;5065549;28;20048;-66
2022/01/08 00:44:46;;;;;;;9.43;5.00;;;;;;;7.12;62.74;101009.53;5062245;28;20052;-65
2022/01/08 00:47:14;;;;;;;11.88;5.85;;;;;;;7.10;62.94;101014.25;5073768;28;20087;-65
2022/01/08 00:49:42;;;;;;;11.48;5.68;;;;;;;7.07;62.63;101010.13;5062011;28;20112;-65
2022/01/08 00:52:09;;;;;;;11.77;6.22;;;;;;;7.05;62.43;101025.50;5076498;28;20087;-66
2022/01/08 00:54:38;;;;;;;11.55;6.53;;;;;;;7.03;62.58;101030.22;5066988;28;20051;-65
2022/01/08 00:57:07;;;;;;;13.82;6.30;;;;;;;7.02;62.36;101030.41;5073327;28;20063;-65
2022/01/08 00:59:34;;;;;;;13.45;6.13;;;;;;;6.98;62.90;101027.31;5071686;28;20171;-68
2022/01/08 01:02:04;;;;;;;16.02;6.40;;;;;;;6.97;62.85;101030.19;5061897;28;20079;-66
2022/01/08 01:04:32;;;;;;;15.80;6.28;;;;;;;6.94;62.58;101035.91;5072782;28;20105;-66
2022/01/08 01:07:00;;;;;;;12.20;6.55;;;;;;;6.93;62.87;101021.75;5065659;28;20075;-65
2022/01/08 01:09:27;;;;;;;10.98;6.32;;;;;;;6.91;63.07;101030.97;5067146;28;20052;-66
2022/01/08 01:11:57;;;;;;;10.82;6.60;;;;;;;6.88;63.02;101026.03;5062927;28;20052;-66
2022/01/08 01:14:26;;;;;;;11.77;6.35;;;;;;;6.87;62.53;101017.19;5057172;28;20052;-66
2022/01/08 01:16:54;;;;;;;13.90;6.70;;;;;;;6.87;63.01;101019.03;5073278;28;20140;-66
2022/01/08 01:19:23;;;;;;;13.13;6.50;;;;;;;6.85;63.09;101020.03;5064564;28;20048;-65
2022/01/08 01:21:53;;;;;;;14.98;6.60;;;;;;;6.83;62.57;101010.56;5066665;28;20069;-66
2022/01/08 01:24:24;;;;;;;10.43;6.05;;;;;;;6.75;62.78;101003.53;5058781;28;20079;-66
2022/01/08 01:27:32;;;;;;;15.07;6.68;;;;;;;6.80;62.75;101017.13;5062311;28;20083;-65
2022/01/08 01:29:54;;;;;;;11.35;6.53;;;;;;;6.81;62.63;101020.63;5064500;28;20100;-66
2022/01/08 01:46:59;;;;;;;11.27;5.47;;;;;;;6.73;62.88;101034.13;5068264;28;20087;-66
2022/01/08 01:49:10;;;;;;;11.68;5.88;;;;;;;6.70;62.92;101034.50;5065404;28;20069;-68
2022/01/08 01:51:39;;;;;;;9.80;5.78;;;;;;;6.70;63.04;101035.31;5077166;28;20044;-65
2022/01/08 01:54:07;;;;;;;10.57;6.10;;;;;;;6.69;62.88;101033.66;5066727;28;20121;-66
2022/01/08 01:56:35;;;;;;;13.90;6.32;;;;;;;6.70;62.74;101029.16;5065014;28;20075;-65
2022/01/08 01:59:04;;;;;;;10.38;6.20;;;;;;;6.67;63.11;101030.38;5066130;28;20052;-66
2022/01/08 02:01:32;;;;;;;11.50;5.63;;;;;;;6.68;62.72;101031.19;5064735;28;20530;-65
2022/01/08 02:04:00;;;;;;;12.85;6.60;;;;;;;6.66;62.60;101033.22;5065283;28;20045;-65
2022/01/08 02:06:27;;;;;;;12.93;6.35;;;;;;;6.63;62.88;101028.28;5064414;28;20057;-65
2022/01/08 02:08:56;;;;;;;9.85;5.88;;;;;;;6.61;63.06;101030.31;5063711;28;20045;-66
2022/01/08 02:11:24;;;;;;;12.35;6.03;;;;;;;6.59;63.33;101033.16;5066037;28;20083;-66
2022/01/08 02:13:52;;;;;;;10.60;5.43;;;;;;;6.57;63.67;101032.53;5073677;28;20048;-66
2022/01/08 02:16:20;;;;;;;13.35;5.88;;;;;;;6.57;62.97;101039.72;5064750;28;20060;-66
2022/01/08 02:18:50;;;;;;;9.35;5.57;;;;;;;6.56;63.21;101046.06;5077636;28;20108;-68
2022/01/08 02:21:19;;;;;;;9.52;5.43;;;;;;;6.56;63.02;101038.06;5064861;28;20068;-65
2022/01/08 02:23:48;;;;;;;12.13;5.47;;;;;;;6.52;63.20;101046.47;5064442;28;20048;-66
2022/01/08 02:26:16;;;;;;;11.07;5.53;;;;;;;6.52;63.07;101042.97;5069597;28;20081;-66
2022/01/08 02:28:43;;;;;;;8.85;5.63;;;;;;;6.49;63.16;101048.69;5065095;28;20077;-66
2022/01/08 02:31:22;;;;;;;8.75;5.30;;;;;;;6.49;63.08;101052.19;5064679;28;20049;-66
2022/01/08 02:33:50;;;;;;;11.48;5.72;;;;;;;6.49;63.07;101048.69;5066786;28;20123;-66
2022/01/08 02:36:19;;;;;;;12.55;5.40;;;;;;;6.48;63.03;101047.84;5070739;28;20076;-66
2022/01/08 02:38:48;;;;;;;12.80;5.53;;;;;;;6.47;62.92;101048.88;5059605;28;20080;-66
2022/01/08 02:41:15;;;;;;;10.75;5.35;;;;;;;6.46;63.08;101049.06;5063057;28;20052;-66
2022/01/08 02:43:46;;;;;;;12.45;5.60;;;;;;;6.44;63.21;101051.91;5071037;28;20390;-66
2022/01/08 02:46:14;;;;;;;13.65;5.88;;;;;;;6.45;63.40;101058.09;5073243;28;20134;-66
2022/01/08 02:48:41;;;;;;;9.85;5.10;;;;;;;6.45;63.17;101050.06;5064442;28;20426;-66
2022/01/08 02:51:09;;;;;;;9.80;5.05;;;;;;;6.43;63.07;101055.59;5068692;28;20131;-66
2022/01/08 02:53:38;;;;;;;9.35;4.80;;;;;;;6.43;62.97;101055.59;5073978;28;20132;-66
2022/01/08 02:56:06;;;;;;;11.60;5.20;;;;;;;6.41;63.03;101052.28;5072304;28;20391;-66
2022/01/08 02:58:34;;;;;;;9.70;5.03;;;;;;;6.40;63.18;101066.66;5066978;28;20068;-66
2022/01/08 03:01:02;;;;;;;12.07;5.15;;;;;;;6.40;63.28;101057.81;5074338;28;20076;-66
2022/01/08 03:03:29;;;;;;;11.88;5.50;;;;;;;6.39;63.29;101059.66;5073742;28;20112;-66
2022/01/08 03:05:57;;;;;;;11.25;5.70;;;;;;;6.39;63.25;101058.84;5062298;28;20053;-66
2022/01/08 03:08:26;;;;;;;14.30;5.43;;;;;;;6.37;63.09;101059.03;5067471;28;20045;-66
2022/01/08 03:10:55;;;;;;;14.07;5.90;;;;;;;6.36;63.11;101057.38;5064666;28;20049;-66
2022/01/08 03:13:23;;;;;;;9.98;5.15;;;;;;;6.37;63.06;101060.88;5066705;28;20087;-66
2022/01/08 03:15:51;;;;;;;16.08;5.85;;;;;;;6.35;63.29;101057.56;5067411;28;20143;-66
2022/01/08 03:18:19;;;;;;;9.93;5.15;;;;;;;6.36;63.43;101059.22;5069788;28;20094;-66
2022/01/08 03:21:00;;;;;;;14.80;5.65;;;;;;;6.35;63.13;101055.72;5078159;28;20476;-66
2022/01/08 03:23:36;;;;;;;10.95;5.10;;;;;;;6.33;63.25;101057.75;5068444;28;20072;-66
2022/01/08 03:26:06;;;;;;;15.20;6.17;;;;;;;6.33;63.20;101055.09;5063503;28;20052;-66
2022/01/08 03:28:33;;;;;;;8.27;4.90;;;;;;;6.32;63.32;101058.78;5059304;28;20052;-66
2022/01/08 03:31:01;;;;;;;13.70;6.90;;;;;;;6.33;63.21;101057.75;5066903;28;20055;-66
2022/01/08 03:33:29;;;;;;;9.30;5.00;;;;;;;6.32;63.08;101058.78;5065973;28;20049;-66
2022/01/08 03:35:57;;;;;;;13.65;5.47;;;;;;;6.33;63.07;101062.25;5062448;28;20252;-66
2022/01/08 03:38:25;;;;;;;9.82;5.00;;;;;;;6.31;63.17;101062.44;5065150;28;20322;-66
2022/01/08 03:40:53;;;;;;;13.40;5.13;;;;;;;6.31;63.11;101061.63;5064025;28;20302;-66
2022/01/08 03:43:22;;;;;;;12.07;4.53;;;;;;;6.31;63.27;101065.13;5063210;28;20076;-66
2022/01/08 03:45:49;;;;;;;10.60;4.82;;;;;;;6.30;63.23;101068.81;5072065;28;20053;-66
2022/01/08 03:48:27;;;;;;;6.43;4.25;;;;;;;6.30;63.31;101062.66;5068998;28;20049;-66
2022/01/08 03:50:56;;;;;;;8.57;4.65;;;;;;;6.28;63.36;101054.00;5072395;28;20072;-66
2022/01/08 03:53:25;;;;;;;10.65;4.65;;;;;;;6.29;63.18;101058.31;5063249;28;20083;-66
2022/01/08 03:55:54;;;;;;;7.80;4.55;;;;;;;6.28;63.22;101049.47;5062079;28;20087;-66
2022/01/08 03:58:23;;;;;;;11.73;4.60;;;;;;;6.27;63.34;101060.34;5067581;28;20131;-66
2022/01/08 04:00:51;;;;;;;8.70;4.55;;;;;;;6.25;63.25;101055.19;5074927;28;20060;-66
2022/01/08 04:03:19;;;;;;;10.93;5.18;;;;;;;6.24;63.41;101050.06;5064880;28;20144;-66
2022/01/08 04:05:48;;;;;;;13.60;4.43;;;;;;;6.23;63.17;101059.06;5074667;28;20052;-66
2022/01/08 04:08:16;;;;;;;14.38;5.57;;;;;;;6.23;63.39;101064.41;5066178;28;20151;-66
2022/01/08 04:10:44;;;;;;;11.50;5.13;;;;;;;6.23;63.50;101072.41;5068314;28;20087;-65
2022/01/08 04:13:14;;;;;;;8.00;4.00;;;;;;;6.22;63.16;101086.78;5062429;28;20060;-66
2022/01/08 04:15:46;;;;;;;13.60;4.32;;;;;;;6.21;63.39;101075.28;5073675;28;20171;-66
2022/01/08 04:18:14;;;;;;;10.90;5.68;;;;;;;6.19;63.40;101069.28;5066504;28;20083;-66
2022/01/08 04:20:56;;;;;;;12.43;4.43;;;;;;;6.17;63.45;101076.66;5061193;28;20060;-66
2022/01/08 04:23:24;;;;;;;12.57;5.60;;;;;;;6.17;63.28;101080.16;5061895;28;20078;-66
2022/01/08 04:25:52;;;;;;;10.80;4.78;;;;;;;6.16;63.32;101081.16;5069505;28;20526;-66
2022/01/08 04:28:20;;;;;;;9.70;4.60;;;;;;;6.17;63.36;101076.66;5065723;28;20045;-66
2022/01/08 04:30:49;;;;;;;13.80;4.85;;;;;;;6.15;63.21;101084.03;5072767;28;20072;-66
2022/01/08 04:33:17;;;;;;;8.30;4.65;;;;;;;6.14;63.40;101093.03;5074420;28;20542;-66
2022/01/08 04:35:45;;;;;;;12.45;4.50;;;;;;;6.14;63.21;101095.72;5067912;28;20049;-66
2022/01/08 04:38:13;;;;;;;12.20;4.63;;;;;;;6.15;63.29;101094.69;5059642;28;20076;-66
2022/01/08 04:40:41;;;;;;;9.80;4.15;;;;;;;6.14;63.27;101096.53;5077350;28;20140;-66
2022/01/08 04:43:09;;;;;;;11.57;4.20;;;;;;;6.15;63.27;101097.38;5069335;28;20052;-65
2022/01/08 04:45:36;;;;;;;10.63;5.35;;;;;;;6.11;63.46;101107.59;5064158;28;20117;-66
2022/01/08 04:48:06;;;;;;;11.00;5.22;;;;;;;6.07;63.39;101094.81;5062110;28;20494;-66
2022/01/08 04:50:34;;;;;;;10.68;4.70;;;;;;;6.10;63.47;101099.78;5069414;28;20052;-66
2022/01/08 04:53:02;;;;;;;11.98;3.97;;;;;;;6.09;63.44;101106.13;5064008;28;20053;-66
2022/01/08 04:55:29;;;;;;;10.52;4.88;;;;;;;6.08;63.60;101107.13;5066591;28;20076;-66
2022/01/08 04:57:57;;;;;;;8.45;3.83;;;;;;;6.07;63.56;101114.31;5063090;28;20073;-66
2022/01/08 05:00:25;;;;;;;9.07;4.82;;;;;;;6.05;63.41;101110.16;5069844;28;20490;-66
2022/01/08 05:02:52;;;;;;;8.95;4.07;;;;;;;6.06;63.43;101118.00;5061985;28;20076;-66
2022/01/08 05:05:22;;;;;;;9.38;4.03;;;;;;;6.04;63.63;101121.84;5068208;28;20112;-67
2022/01/08 05:07:50;;;;;;;9.30;3.85;;;;;;;6.04;63.61;101114.69;5065199;28;20075;-66
2022/01/08 05:10:18;;;;;;;8.20;3.95;;;;;;;6.04;63.59;101125.34;5075333;28;20041;-66
2022/01/08 05:12:46;;;;;;;16.42;4.45;;;;;;;6.03;63.63;101131.69;5060917;28;20049;-66
2022/01/08 05:15:15;;;;;;;11.13;4.80;;;;;;;6.03;63.52;101130.88;5066198;28;20044;-65
2022/01/08 05:17:45;;;;;;;10.90;3.83;;;;;;;6.01;63.53;101130.22;5069305;28;20075;-66
2022/01/08 05:20:14;;;;;;;8.38;3.58;;;;;;;6.03;63.26;101134.38;5068639;28;20087;-66
2022/01/08 05:22:51;;;;;;;8.43;3.95;;;;;;;6.03;63.60;101133.53;5061289;28;20048;-66
2022/01/08 05:25:21;;;;;;;9.75;4.55;;;;;;;5.95;63.45;101117.63;5061344;28;20402;-66
2022/01/08 05:27:49;;;;;;;9.45;4.15;;;;;;;6.03;63.31;101125.53;5067761;28;20053;-66
2022/01/08 05:30:19;;;;;;;7.38;3.80;;;;;;;6.02;63.14;101129.22;5060696;28;20072;-66
2022/01/08 05:32:48;;;;;;;11.25;4.07;;;;;;;6.02;63.54;101121.22;5060910;28;20068;-66
2022/01/08 05:35:16;;;;;;;9.45;3.63;;;;;;;6.02;63.49;101121.22;5064332;28;20413;-67
2022/01/08 05:37:45;;;;;;;10.55;4.57;;;;;;;6.01;63.45;101125.72;5071961;28;20092;-67
2022/01/08 05:40:13;;;;;;;6.75;3.35;;;;;;;5.97;63.41;101126.28;5063702;28;20045;-66
2022/01/08 05:42:41;;;;;;;8.60;4.00;;;;;;;6.01;63.69;101127.56;5062169;28;20077;-67
2022/01/08 05:45:10;;;;;;;7.85;3.70;;;;;;;6.00;63.68;101116.06;5065883;28;20151;-67
2022/01/08 05:47:38;;;;;;;7.68;3.47;;;;;;;6.00;63.47;101116.06;5065911;28;20052;-67
2022/01/08 05:50:08;;;;;;;8.38;4.50;;;;;;;6.01;63.57;101122.22;5061434;28;20095;-66
2022/01/08 05:52:36;;;;;;;10.15;4.07;;;;;;;5.91;63.90;101119.00;5067688;28;20102;-66
2022/01/08 05:55:05;;;;;;;8.73;3.53;;;;;;;5.95;63.86;101134.47;5063441;28;20056;-66
2022/01/08 05:57:33;;;;;;;8.15;3.53;;;;;;;5.97;63.48;101131.59;5064794;28;20071;-66
2022/01/08 06:00:01;;;;;;;8.80;3.22;;;;;;;5.95;63.46;101129.13;5064423;28;20048;-66
2022/01/08 06:02:29;;;;;;;8.70;4.10;;;;;;;6.00;63.60;101140.06;5076364;28;20048;-66
2022/01/08 06:04:57;;;;;;;11.20;4.10;;;;;;;6.08;63.47;101141.81;5075452;28;20097;-66
2022/01/08 06:07:25;;;;;;;9.50;3.97;;;;;;;6.19;62.92;101150.19;5064920;28;20080;-66
2022/01/08 06:09:52;;;;;;;8.05;3.47;;;;;;;6.34;62.72;101146.66;5064893;28;20068;-66
2022/01/08 06:12:22;;;;;;;7.15;4.40;;;;;;;6.50;62.04;101154.47;5066139;28;20076;-66
2022/01/08 06:14:49;;;;;;;6.97;3.17;;;;;;;6.64;61.34;101158.94;5065516;28;20064;-67
2022/01/08 06:17:17;;;;;;;10.05;3.92;;;;;;;6.80;60.67;101152.53;5064493;28;20064;-67
2022/01/08 06:19:45;;;;;;;11.18;3.53;;;;;;;6.93;60.89;101150.00;5063899;28;20041;-67
2022/01/08 06:22:12;;;;;;;8.02;3.85;;;;;;;7.07;60.05;101159.75;5069419;28;20071;-67
2022/01/08 06:24:40;;;;;;;13.15;3.88;;;;;;;7.22;60.18;101167.72;5081155;28;20086;-66
2022/01/08 06:27:09;;;;;;;7.40;3.17;;;;;;;7.33;59.50;101161.84;5064599;28;20049;-65
2022/01/08 06:29:40;;;;;;;8.68;3.47;;;;;;;7.44;59.00;101166.66;5068232;28;20037;-67
2022/01/08 06:32:08;;;;;;;9.80;4.55;;;;;;;7.45;58.83;101159.47;5071945;28;20044;-67
2022/01/08 06:34:37;;;;;;;8.25;4.00;;;;;;;7.51;58.52;101154.19;5066911;28;20056;-67
2022/01/08 06:37:05;;;;;;;7.47;3.85;;;;;;;7.51;58.80;101148.84;5073399;28;20115;-66
2022/01/08 06:39:33;;;;;;;8.40;4.47;;;;;;;7.48;58.95;101138.53;5063098;28;20059;-67
2022/01/08 06:42:00;;;;;;;7.15;3.20;;;;;;;7.37;59.43;101146.25;5063584;28;20083;-67
2022/01/08 06:44:35;;;;;;;6.20;3.27;;;;;;;7.19;59.66;101133.34;4621497;28;10003657;-66
2022/01/08 06:47:05;;;;;;;10.85;3.83;;;;;;;7.07;59.63;101132.22;5050011;28;20075;-67
2022/01/08 06:49:33;;;;;;;6.43;4.03;;;;;;;6.95;60.37;101131.91;5061597;28;20533;-67
2022/01/08 06:52:01;;;;;;;9.50;3.00;;;;;;;6.81;60.38;101130.16;5059370;28;20099;-64
2022/01/08 06:54:28;;;;;;;11.60;3.38;;;;;;;6.76;60.85;101137.91;5060196;28;20148;-67
2022/01/08 06:56:56;;;;;;;9.25;3.83;;;;;;;6.66;61.21;101122.19;5061265;28;20076;-68
2022/01/08 06:59:24;;;;;;;10.32;3.53;;;;;;;6.59;61.52;101123.13;5059827;28;20140;-68
2022/01/08 07:01:51;;;;;;;19.73;4.53;;;;;;;6.55;61.93;101128.03;5079407;28;20080;-70
2022/01/08 07:04:20;;;;;;;10.05;3.30;;;;;;;6.48;61.94;101133.28;5072988;28;20083;-68
2022/01/08 07:06:48;;;;;;;9.82;3.47;;;;;;;6.42;62.01;101135.88;5064433;28;20087;-67
2022/01/08 07:09:16;;;;;;;10.65;4.10;;;;;;;6.37;62.17;101135.63;5068576;28;20052;-68
2022/01/08 07:11:43;;;;;;;9.70;3.67;;;;;;;6.32;62.16;101138.00;5063999;28;20576;-67
2022/01/08 07:14:11;;;;;;;6.82;3.33;;;;;;;6.29;62.82;101130.38;5061879;28;20457;-68
2022/01/08 07:16:39;;;;;;;14.07;3.88;;;;;;;6.26;62.52;101130.75;5066166;28;20072;-69
2022/01/08 07:19:07;;;;;;;6.93;3.88;;;;;;;6.24;62.63;101133.59;5062420;28;20037;-68
2022/01/08 07:21:36;;;;;;;6.53;3.70;;;;;;;6.25;62.87;101140.59;5067096;28;20132;-67
2022/01/08 07:24:04;;;;;;;10.00;4.03;;;;;;;6.25;62.75;101137.09;5060849;28;20271;-68
2022/01/08 07:26:32;;;;;;;11.65;4.07;;;;;;;6.22;62.84;101143.66;5067660;28;20071;-67
2022/01/08 07:28:59;;;;;;;5.80;3.42;;;;;;;6.18;63.02;101148.53;5079934;28;20048;-66
2022/01/08 07:31:27;;;;;;;9.85;4.13;;;;;;;6.14;62.75;101141.91;5063815;28;20060;-67
2022/01/08 07:33:55;;;;;;;9.13;3.67;;;;;;;6.14;63.10;101138.41;5075918;28;20096;-67
2022/01/08 07:36:23;;;;;;;8.50;3.58;;;;;;;6.10;63.31;101140.63;5074852;28;20075;-67
2022/01/08 07:38:52;;;;;;;9.07;3.38;;;;;;;6.08;63.18;101134.66;5070738;28;20103;-67
2022/01/08 07:41:19;;;;;;;12.70;5.10;;;;;;;6.08;63.31;101139.97;5072021;28;20084;-68
2022/01/08 07:43:47;;;;;;;9.68;3.70;;;;;;;6.07;63.13;101135.66;5064066;28;20045;-67
2022/01/08 07:46:15;;;;;;;8.00;3.95;;;;;;;6.08;63.39;101139.16;5059486;28;20060;-68
2022/01/08 07:48:43;;;;;;;9.43;3.88;;;;;;;6.10;62.92;101129.13;5059710;28;20148;-68
2022/01/08 07:51:11;;;;;;;8.38;3.55;;;;;;;6.33;62.34;101137.00;5060458;28;20076;-69
2022/01/08 07:53:40;;;;;;;6.50;3.38;;;;;;;6.48;62.15;101135.13;5059894;28;20055;-68
2022/01/08 07:56:09;;;;;;;10.52;4.25;;;;;;;6.53;61.74;101140.72;5052703;28;20076;-66
2022/01/08 07:58:36;;;;;;;15.55;4.63;;;;;;;6.38;61.29;101138.09;5058302;28;20056;-69
2022/01/08 08:01:04;;;;;;;10.23;4.82;;;;;;;6.60;61.46;101127.47;5053647;28;20144;-68
2022/01/08 08:03:32;;;;;;;11.13;4.72;;;;;;;6.78;61.00;101119.84;5052850;28;20222;-65
2022/01/08 08:06:00;;;;;;;11.05;4.50;;;;;;;6.81;60.98;101111.44;5065105;28;20124;-65
2022/01/08 08:08:28;;;;;;;9.10;4.70;;;;;;;6.71;60.92;101105.59;5066108;28;20088;-65
2022/01/08 08:10:55;;;;;;;9.27;4.28;;;;;;;6.67;61.07;101113.16;5078563;28;20053;-65
2022/01/08 08:13:25;;;;;;;10.52;4.40;;;;;;;6.58;61.22;101114.28;5076518;28;20076;-65
2022/01/08 08:15:52;;;;;;;9.32;4.68;;;;;;;6.52;62.09;101109.72;5059744;28;20048;-65
2022/01/08 08:18:20;;;;;;;8.05;4.38;;;;;;;6.60;61.97;101106.91;5078409;28;20612;-65
2022/01/08 08:20:48;;;;;;;9.25;3.90;;;;;;;6.74;61.57;101113.22;5064390;28;20048;-65
2022/01/08 08:23:16;;;;;;;9.60;4.10;;;;;;;6.81;60.48;101098.09;5060029;28;20088;-65
2022/01/08 08:25:44;;;;;;;12.20;4.50;;;;;;;7.02;60.24;101107.91;5060439;28;20049;-65
2022/01/08 08:28:11;;;;;;;10.30;4.43;;;;;;;7.16;60.03;101099.81;5070162;28;20094;-65
2022/01/08 08:30:41;;;;;;;8.80;4.07;;;;;;;7.27;59.61;101095.78;5062543;28;20048;-65
2022/01/08 08:33:08;;;;;;;6.95;4.53;;;;;;;7.43;59.03;101092.81;5068269;28;20083;-65
2022/01/08 08:35:36;;;;;;;9.20;4.28;;;;;;;7.50;58.71;101090.19;5068667;28;20188;-66
2022/01/08 08:38:04;;;;;;;10.25;4.32;;;;;;;7.53;58.72;101092.47;5052857;28;20080;-66
2022/01/08 08:40:32;;;;;;;10.90;4.88;;;;;;;7.43;59.51;101092.81;5066487;28;20088;-65
2022/01/08 08:42:59;;;;;;;7.82;4.45;;;;;;;7.27;59.88;101094.97;5058511;28;20087;-66
2022/01/08 08:45:27;;;;;;;7.32;4.80;;;;;;;7.13;60.02;101088.69;5057433;28;20072;-66
2022/01/08 08:47:56;;;;;;;7.60;4.72;;;;;;;7.00;60.90;101089.41;5062743;28;20075;-66
2022/01/08 08:50:25;;;;;;;15.60;5.38;;;;;;;6.89;60.85;101092.63;5058367;28;20057;-66
2022/01/08 08:52:54;;;;;;;9.27;5.13;;;;;;;6.81;61.18;101090.06;5066894;28;20079;-67
2022/01/08 08:55:22;;;;;;;8.93;4.78;;;;;;;6.67;61.99;101074.94;5078890;28;20056;-67
2022/01/08 08:57:50;;;;;;;11.65;5.30;;;;;;;6.65;61.94;101085.00;5078614;28;20048;-66
2022/01/08 09:00:19;;;;;;;9.00;4.78;;;;;;;6.58;61.89;101098.28;5078710;28;20104;-67
2022/01/08 09:02:46;;;;;;;13.27;6.40;;;;;;;6.54;62.17;101088.97;5079052;28;20052;-67
2022/01/08 09:05:16;;;;;;;8.88;5.10;;;;;;;6.48;62.89;101089.75;5058547;28;20076;-68
2022/01/08 09:07:44;;;;;;;9.27;5.97;;;;;;;6.45;62.96;101090.13;5058341;28;20076;-66
2022/01/08 09:10:12;;;;;;;10.20;5.35;;;;;;;6.42;62.71;101087.81;5065717;28;20080;-66
2022/01/08 09:12:42;;;;;;;9.50;5.40;;;;;;;6.39;62.93;101089.03;5078793;28;20325;-67
2022/01/08 09:15:10;;;;;;;11.82;5.50;;;;;;;6.40;63.04;101087.19;5072519;28;20049;-67
2022/01/08 09:17:40;;;;;;;12.52;6.80;;;;;;;6.39;63.08;101088.19;5063961;28;20053;-70
2022/01/08 09:20:09;;;;;;;11.23;5.88;;;;;;;6.36;63.15;101091.25;5059562;28;20049;-66
2022/01/08 09:22:39;;;;;;;10.00;5.40;;;;;;;6.34;63.38;101085.28;5074331;28;20079;-64
2022/01/08 09:25:08;;;;;;;12.35;6.55;;;;;;;6.33;63.82;101080.94;5076286;28;20053;-64
2022/01/08 09:27:36;;;;;;;11.57;6.20;;;;;;;6.32;63.45;101081.97;5064612;28;20092;-66
2022/01/08 09:30:04;;;;;;;14.80;8.63;;;;;;;6.18;63.70;101073.81;5081804;28;20052;-66
2022/01/08 09:32:33;;;;;;;15.10;9.70;;;;;;;6.05;63.82;101062.97;5067761;28;20045;-64
2022/01/08 09:35:02;;;;;;;23.38;9.30;;;;;;;5.89;64.35;101057.84;5068365;28;20498;-65
2022/01/08 09:37:29;;;;;;;26.95;11.20;;;;;;;5.84;64.79;101060.22;5081105;28;20048;-65
2022/01/08 09:39:59;;;;;;;18.00;9.77;;;;;;;5.95;64.84;101057.09;5064867;28;20179;-66
2022/01/08 09:42:26;;;;;;;17.83;9.95;;;;;;;6.02;64.56;101043.84;5074681;28;20087;-66
2022/01/08 09:44:54;;;;;;;19.25;8.88;;;;;;;6.06;64.58;101040.63;5058336;28;20080;-66
2022/01/08 09:47:22;;;;;;;16.80;9.80;;;;;;;6.08;64.45;101035.91;5060792;28;20053;-64
2022/01/08 09:49:50;;;;;;;16.88;9.38;;;;;;;6.09;64.68;101032.25;5062728;28;20080;-67
2022/01/08 09:52:18;;;;;;;20.83;9.95;;;;;;;6.13;64.44;101019.34;5065179;28;20045;-68
2022/01/08 09:54:45;;;;;;;16.55;8.18;;;;;;;6.12;64.54;101025.69;5082000;28;20054;-66
2022/01/08 09:57:14;;;;;;;15.95;9.00;;;;;;;6.11;64.37;101030.22;5065929;28;20096;-66
2022/01/08 09:59:42;;;;;;;15.88;8.38;;;;;;;6.13;64.48;101014.84;5072492;28;20080;-66
2022/01/08 10:02:10;;;;;;;12.02;7.68;;;;;;;6.15;64.67;101004.81;5064453;28;20340;-66
2022/01/08 10:04:38;;;;;;;18.02;8.85;;;;;;;6.17;64.31;101004.63;5061542;28;20049;-68
2022/01/08 10:07:18;;;;;;;13.98;8.75;;;;;;;6.20;64.28;100998.91;5078211;28;20098;-67
2022/01/08 10:10:01;;;;;;;15.07;7.30;;;;;;;6.17;64.66;100977.94;5061279;28;20059;-68
2022/01/08 10:12:44;;;;;;;18.60;8.25;;;;;;;6.26;64.61;100975.97;5056619;28;20123;-69
2022/01/08 10:17:59;;;;;;;16.30;7.40;;;;;;;6.26;65.13;100974.13;5066284;28;20423;-67
2022/01/08 10:20:32;;;;;;;13.05;7.32;;;;;;;6.27;64.65;100953.59;5060301;28;20076;-67
2022/01/08 10:23:10;;;;;;;19.83;7.97;;;;;;;6.33;65.14;100939.47;5064662;28;20410;-67
2022/01/08 10:25:38;;;;;;;19.98;9.57;;;;;;;6.27;64.21;100934.91;5060899;28;20046;-68
2022/01/08 10:28:07;;;;;;;24.73;10.65;;;;;;;6.28;64.71;100925.88;5077161;28;20044;-67
2022/01/08 10:30:35;;;;;;;27.45;10.07;;;;;;;6.30;65.45;100916.69;5061035;28;20083;-67
2022/01/08 10:33:03;;;;;;;26.17;11.23;;;;;;;6.28;64.62;100913.38;5074665;28;20076;-67
2022/01/08 10:35:55;;;;;;;31.50;11.13;;;;;;;6.32;64.99;100919.16;5060368;28;20056;-66
2022/01/08 10:38:27;;;;;;;27.85;10.35;;;;;;;6.36;64.74;100915.91;5053967;28;20099;-67
2022/01/08 10:40:55;;;;;;;25.45;10.38;;;;;;;6.46;66.43;100904.91;5058643;28;20052;-67
2022/01/08 10:43:27;;;;;;;23.05;9.98;;;;;;;6.42;65.11;100907.13;5067134;28;20108;-67
2022/01/08 10:46:07;;;;;;;22.08;9.25;;;;;;;6.39;65.20;100890.66;5070971;28;20393;-65
2022/01/08 10:48:36;;;;;;;27.42;9.88;;;;;;;6.39;64.98;100896.00;5054967;28;20512;-67
2022/01/08 10:51:13;;;;;;;20.33;9.73;;;;;;;6.36;65.21;100883.88;5079076;28;20603;-67
2022/01/08 10:53:58;;;;;;;;;;;;;;;6.40;65.25;100885.13;5060684;28;20561;-67
2022/01/08 10:56:28;;;;;;;21.77;9.52;;;;;;;6.40;65.06;100869.13;5079125;28;19976;-66
2022/01/08 10:59:03;;;;;;;18.58;7.78;;;;;;;6.46;65.70;100859.50;5063067;28;20052;-67
2022/01/08 11:01:54;;;;;;;18.33;8.07;;;;;;;6.46;65.04;100864.84;5068602;28;20045;-67
2022/01/08 11:04:41;;;;;;;16.92;7.40;;;;;;;6.49;66.22;100853.78;5067226;28;20194;-67
2022/01/08 11:07:12;;;;;;;13.23;7.65;;;;;;;6.49;65.45;100849.28;5068831;28;20044;-68
2022/01/08 11:09:41;;;;;;;14.85;7.50;;;;;;;6.48;65.24;100836.94;5063043;28;20064;-68
2022/01/08 11:12:13;;;;;;;14.80;7.25;;;;;;;6.57;65.54;100834.13;5065634;28;20098;-68
2022/01/08 11:15:12;;;;;;;15.55;6.18;;;;;;;6.70;68.66;100820.84;5066494;28;20086;-67
2022/01/08 11:17:42;;;;;;;14.25;5.88;;;;;;;6.62;65.15;100813.81;5084082;28;20083;-67
2022/01/08 11:20:12;;;;;;;10.50;5.45;;;;;;;6.66;65.46;100799.06;5083806;28;20045;-68
2022/01/08 11:22:42;;;;;;;12.20;6.13;;;;;;;6.67;66.09;100787.34;5083383;28;20044;-69
2022/01/08 11:25:12;;;;;;;19.73;5.72;;;;;;;6.73;66.11;100785.72;5079979;28;20048;-67
2022/01/08 11:27:45;;;;;;;13.65;5.25;;;;;;;6.68;65.52;100770.31;5061801;28;20042;-67
2022/01/08 11:30:19;;;;;;;10.57;5.28;;;;;;;6.64;65.36;100776.25;5075801;28;20080;-66
2022/01/08 11:32:48;;;;;;;9.73;5.25;;;;;;;6.62;65.83;100768.41;5063572;28;20722;-66
2022/01/08 11:35:35;;;;;;;10.18;4.90;;;;;;;6.61;65.74;100757.94;5061410;28;20573;-67
2022/01/08 11:38:06;;;;;;;9.07;5.07;;;;;;;6.53;66.08;100741.06;5061393;28;20046;-66
2022/01/08 11:40:35;;;;;;;17.55;5.05;;;;;;;6.73;66.27;100756.34;5062181;28;20080;-66
2022/01/08 11:43:05;;;;;;;7.10;4.07;;;;;;;6.73;65.84;100751.00;5068698;28;20048;-66
2022/01/08 11:45:36;;;;;;;11.65;6.28;;;;;;;6.68;65.54;100735.59;5062676;28;20060;-67
2022/01/08 11:48:08;;;;;;;10.57;4.53;;;;;;;6.70;65.69;100730.03;5062538;28;20048;-66
2022/01/08 11:50:36;;;;;;;9.52;4.22;;;;;;;6.67;65.47;100725.09;5062508;28;20156;-67
2022/01/08 11:53:19;;;;;;;10.32;4.25;;;;;;;6.82;65.09;100712.44;5064297;28;20041;-67
2022/01/08 11:55:48;;;;;;;7.80;3.90;;;;;;;6.82;65.37;100704.41;5064617;28;20057;-66